Terminal Aerodrome Forecast
Issued by NWS

Home | Current Version | Previous Version | Graphics & Text | Print | Product List | Glossary On
Versions: 1 2 3 4 5 6 7 8 9 10 11 12 13 14 15 16 17 18 19 20 21 22 23 24 25 26 27 28 29 30 31 32 33 34 35 36 37
000
FTUS43 KLOT 222300
TAFDPA
TAF
KDPA 222336Z 2300/2324 20010KT P6SM SCT020 OVC040
     FM230200 20012KT 6SM BR BKN020 OVC040
     FM230600 20012KT 3SM BR BKN012 OVC020 WS020/21045KT
     FM231000 20013KT 2SM BR VCSH BKN007 OVC015
     FM231600 18014G20KT 3SM -SHRA BR BKN007 BKN015 OVC025
     FM232200 15012G20KT 2SM -RA BR OVC006=

USA.gov is the U.S. government's official web portal to all federal, state and local government web resources and services.